< < Back
Terminal Aerodrome Forecast


Current Version              Previous Versions:   1  2  3  4  5  6  7  8  9  

Terminal Aerodrome Forecast

916
FTUS42 KTAE 060058 AAA
TAFABY
TAF AMD
KABY 060058Z 0601/0624 28005KT P6SM SCT090
     FM061500 32011KT P6SM SKC=

Latest METAR

551
SAUS70 KWBC 061300 RRI
MTRABY
METAR KABY 061253Z 33008KT 10SM CLR 13/06 A2996 RMK AO2 SLP145
T01280056


USA.gov is the U.S. government's official web portal to all federal, state and local government web resources and services.